createdAt,value
2022-10-28T00:03:23.890Z,6.30
2022-10-28T00:08:26.084Z,6.40
2022-10-28T00:13:28.221Z,6.23
2022-10-28T00:18:30.391Z,6.37
2022-10-28T00:23:32.497Z,6.03
2022-10-28T00:28:34.745Z,6.60
2022-10-28T00:33:37.163Z,6.13
2022-10-28T00:38:40.335Z,6.83
2022-10-28T00:43:51.390Z,6.60
2022-10-28T00:49:24.577Z,6.30
2022-10-28T00:54:27.393Z,7.40
2022-10-28T00:59:33.520Z,5.93
2022-10-28T01:04:35.715Z,5.87
2022-10-28T01:09:39.676Z,6.60
2022-10-28T01:14:55.921Z,5.43
2022-10-28T01:20:39.625Z,5.63
2022-10-28T01:25:59.941Z,6.67
2022-10-28T01:31:19.659Z,6.20
2022-10-28T01:36:39.710Z,5.63
2022-10-28T01:47:16.506Z,6.90
2022-10-28T01:52:22.876Z,5.30
2022-10-28T01:57:26.059Z,5.77
2022-10-28T02:02:32.730Z,5.83
2022-10-28T02:07:35.015Z,5.10
2022-10-28T02:12:38.927Z,6.50
2022-10-28T02:18:39.938Z,5.43
2022-10-28T02:23:46.856Z,5.40
2022-10-28T02:29:03.070Z,5.70
2022-10-28T02:34:10.016Z,4.90
2022-10-28T02:39:12.299Z,4.97
2022-10-28T02:44:19.207Z,5.07
2022-10-28T02:49:22.620Z,5.73
2022-10-28T02:54:40.651Z,5.67
2022-10-28T02:59:42.765Z,5.97
2022-10-28T03:04:44.973Z,5.37
2022-10-28T03:09:47.282Z,5.60
2022-10-28T03:14:49.474Z,4.90
2022-10-28T03:19:51.653Z,7.07
2022-10-28T03:24:53.796Z,5.20
2022-10-28T03:29:58.498Z,4.80
2022-10-28T03:35:00.758Z,6.57
2022-10-28T03:40:07.961Z,4.83
2022-10-28T03:45:10.712Z,6.13
2022-10-28T03:50:12.923Z,6.20
2022-10-28T03:55:15.078Z,6.17
2022-10-28T04:00:17.265Z,6.13
2022-10-28T04:05:20.523Z,5.23
2022-10-28T04:10:22.724Z,5.63
2022-10-28T04:15:24.923Z,5.57
2022-10-28T04:20:27.543Z,6.17
2022-10-28T04:25:32.510Z,6.53
2022-10-28T04:30:34.644Z,5.67
2022-10-28T04:35:39.386Z,5.73
2022-10-28T04:40:41.913Z,5.80
2022-10-28T04:45:46.595Z,7.43
2022-10-28T04:50:48.995Z,6.30
2022-10-28T04:55:51.144Z,6.20
2022-10-28T05:00:53.285Z,6.57
2022-10-28T05:05:55.436Z,6.50
2022-10-28T05:10:57.621Z,7.03
2022-10-28T05:15:59.801Z,6.90
2022-10-28T05:21:02.076Z,7.00
2022-10-28T05:26:04.530Z,6.83
2022-10-28T05:31:06.711Z,6.80
2022-10-28T05:36:09.000Z,7.40
2022-10-28T05:41:11.578Z,6.87
2022-10-28T05:46:13.761Z,6.57
2022-10-28T05:51:21.586Z,6.27
2022-10-28T05:56:23.698Z,7.73
2022-10-28T06:01:25.910Z,7.30
2022-10-28T06:06:31.114Z,7.50
2022-10-28T06:11:33.579Z,7.60
2022-10-28T06:16:35.907Z,8.03
2022-10-28T06:21:38.117Z,7.30
2022-10-28T06:26:40.252Z,8.83
2022-10-28T06:31:42.816Z,8.97
2022-10-28T06:36:45.077Z,8.63
2022-10-28T06:41:47.242Z,9.20
2022-10-28T06:46:50.896Z,7.73
2022-10-28T06:51:53.066Z,8.07
2022-10-28T06:56:55.229Z,10.23
2022-10-28T07:01:57.527Z,8.10
2022-10-28T07:06:59.918Z,7.70
2022-10-28T07:12:05.081Z,7.80
2022-10-28T07:17:08.025Z,8.10
2022-10-28T07:22:10.165Z,7.53
2022-10-28T07:27:12.538Z,7.90
2022-10-28T07:32:14.710Z,8.80
2022-10-28T07:37:17.012Z,7.53
2022-10-28T07:42:19.159Z,7.97
2022-10-28T07:47:22.402Z,7.30
2022-10-28T07:52:24.699Z,7.37
2022-10-28T07:57:26.916Z,8.30
2022-10-28T08:02:30.120Z,9.63
2022-10-28T08:07:34.872Z,6.77
2022-10-28T08:12:40.131Z,9.30
2022-10-28T08:17:42.297Z,7.87
2022-10-28T08:22:44.574Z,7.27
2022-10-28T08:27:46.751Z,7.47
2022-10-28T08:32:49.003Z,7.60
2022-10-28T08:37:52.739Z,8.37
2022-10-28T08:43:00.244Z,7.47
2022-10-28T08:48:17.521Z,7.53
2022-10-28T08:53:33.799Z,8.70
2022-10-28T08:58:39.128Z,9.07
2022-10-28T09:03:44.491Z,7.33
2022-10-28T09:08:49.034Z,7.67
2022-10-28T09:14:11.280Z,7.70
2022-10-28T09:19:16.442Z,9.13
2022-10-28T09:24:24.400Z,7.40
2022-10-28T09:29:48.183Z,6.70
2022-10-28T09:34:58.441Z,4.60
2022-10-28T09:40:05.282Z,6.50
2022-10-28T09:45:29.002Z,5.83
2022-10-28T09:50:32.692Z,6.13
2022-10-28T09:55:35.229Z,4.80
2022-10-28T10:00:37.576Z,6.17
2022-10-28T10:05:43.204Z,5.30
2022-10-28T10:11:01.062Z,5.67
2022-10-28T10:16:12.214Z,5.87
2022-10-28T10:21:16.420Z,5.27
2022-10-28T10:26:18.670Z,4.60
2022-10-28T10:31:23.575Z,3.40
2022-10-28T10:36:33.016Z,4.30
2022-10-28T10:41:40.395Z,3.70
2022-10-28T10:46:42.850Z,3.47
2022-10-28T10:51:59.839Z,3.67
2022-10-28T10:57:28.272Z,4.03
2022-10-28T11:02:36.844Z,3.73
2022-10-28T11:07:45.849Z,3.90
2022-10-28T11:12:57.683Z,4.40
2022-10-28T11:18:14.664Z,4.27
2022-10-28T11:23:49.233Z,4.40
2022-10-28T11:29:04.018Z,4.50
2022-10-28T11:34:32.806Z,5.73
2022-10-28T11:39:58.983Z,4.67
2022-10-28T11:45:10.745Z,4.30
2022-10-28T11:50:21.341Z,3.47
2022-10-28T11:55:40.105Z,3.90
2022-10-28T12:01:04.063Z,4.53
2022-10-28T12:06:34.244Z,3.93
2022-10-28T12:17:35.892Z,5.03
2022-10-28T12:22:48.744Z,7.43
2022-10-28T12:27:53.872Z,5.33
2022-10-28T12:33:12.349Z,7.80
2022-10-28T12:38:18.184Z,5.30
2022-10-28T12:43:32.873Z,5.00
2022-10-28T12:48:49.036Z,4.03
2022-10-28T12:54:00.188Z,3.80
2022-10-28T12:59:23.809Z,3.87
2022-10-28T13:04:28.885Z,3.20
2022-10-28T13:10:03.667Z,3.60
2022-10-28T13:15:35.130Z,3.57
2022-10-28T13:20:46.643Z,4.17
2022-10-28T13:26:28.351Z,5.30
2022-10-28T13:31:41.858Z,3.90
2022-10-28T13:36:46.647Z,3.30
2022-10-28T13:41:49.111Z,3.83
2022-10-28T13:47:26.545Z,3.30
2022-10-28T13:52:28.896Z,6.90
2022-10-28T13:57:36.195Z,3.50
2022-10-28T14:02:58.277Z,3.30
2022-10-28T14:08:22.337Z,3.23
2022-10-28T14:13:24.611Z,3.20
2022-10-28T14:18:42.935Z,3.33
2022-10-28T14:28:53.232Z,3.47
2022-10-28T14:33:55.421Z,3.80
2022-10-28T14:39:03.719Z,3.80
2022-10-28T14:44:11.947Z,4.13
2022-10-28T14:49:40.594Z,4.17
2022-10-28T14:54:50.060Z,4.37
2022-10-28T14:59:52.238Z,4.15
2022-10-28T15:05:12.656Z,4.80
2022-10-28T15:10:21.827Z,5.17
2022-10-28T15:15:26.487Z,4.25
2022-10-28T15:20:34.623Z,4.63
2022-10-28T15:25:36.839Z,4.50
2022-10-28T15:30:46.077Z,4.27
2022-10-28T15:35:49.054Z,4.70
2022-10-28T15:40:51.874Z,4.57
2022-10-28T15:45:54.457Z,4.93
2022-10-28T15:51:14.286Z,4.97
2022-10-28T16:01:40.623Z,4.50
2022-10-28T16:06:43.046Z,5.47
2022-10-28T16:11:52.097Z,5.30
2022-10-28T16:16:58.209Z,5.90
2022-10-28T16:22:00.527Z,5.50
2022-10-28T16:27:22.111Z,7.57
2022-10-28T16:32:50.930Z,5.83
2022-10-28T16:37:56.040Z,5.80
2022-10-28T16:43:03.489Z,6.00
2022-10-28T16:48:13.890Z,6.30
2022-10-28T16:53:16.568Z,6.23
2022-10-28T16:58:21.898Z,6.63
2022-10-28T17:03:27.053Z,5.10
2022-10-28T17:08:49.414Z,5.90
2022-10-28T17:14:09.835Z,6.90
2022-10-28T17:19:13.244Z,6.17
2022-10-28T17:24:15.499Z,5.13
2022-10-28T17:29:17.841Z,5.47
2022-10-28T17:34:20.153Z,6.10
2022-10-28T17:39:26.137Z,6.23
2022-10-28T17:44:29.033Z,4.97
2022-10-28T17:49:32.937Z,5.70
2022-10-28T17:54:37.692Z,5.97
2022-10-28T17:59:39.995Z,5.23
2022-10-28T18:04:42.532Z,6.33
2022-10-28T18:09:44.841Z,5.77
2022-10-28T18:14:49.733Z,4.70
2022-10-28T18:19:51.961Z,5.47
2022-10-28T18:24:56.163Z,5.83
2022-10-28T18:30:07.903Z,5.73
2022-10-28T18:35:15.223Z,6.30
2022-10-28T18:40:29.630Z,5.63
2022-10-28T18:45:31.972Z,5.40
2022-10-28T18:50:37.000Z,5.80
2022-10-28T18:55:41.645Z,5.50
2022-10-28T19:06:16.636Z,5.63
2022-10-28T19:11:19.056Z,6.67
2022-10-28T19:16:21.330Z,6.17
2022-10-28T19:21:26.609Z,7.80
2022-10-28T19:26:32.200Z,6.83
2022-10-28T19:31:38.724Z,8.23
2022-10-28T19:36:42.827Z,7.37
2022-10-28T19:41:45.190Z,8.10
2022-10-28T19:46:47.427Z,7.57
2022-10-28T19:51:49.640Z,10.20
2022-10-28T19:56:51.853Z,9.17
2022-10-28T20:01:54.215Z,8.40
2022-10-28T20:06:59.122Z,7.60
2022-10-28T20:12:02.166Z,8.83
2022-10-28T20:17:06.729Z,7.97
2022-10-28T20:22:09.215Z,8.07
2022-10-28T20:27:11.376Z,7.87
2022-10-28T20:32:13.645Z,9.23
2022-10-28T20:37:15.874Z,8.03
2022-10-28T20:42:18.017Z,9.67
2022-10-28T20:47:21.034Z,8.47
2022-10-28T20:57:26.931Z,10.50
2022-10-28T21:02:29.177Z,8.80
2022-10-28T21:07:32.707Z,9.13
2022-10-28T21:12:35.500Z,11.43
2022-10-28T21:17:37.639Z,8.57
2022-10-28T21:22:39.799Z,9.47
2022-10-28T21:27:42.007Z,8.97
2022-10-28T21:32:45.260Z,9.20
2022-10-28T21:37:47.629Z,8.30
2022-10-28T21:42:50.404Z,9.37
2022-10-28T21:47:56.267Z,8.30
2022-10-28T21:53:04.230Z,9.53
2022-10-28T21:58:06.783Z,7.93
2022-10-28T22:03:10.515Z,8.63
2022-10-28T22:08:12.854Z,8.20
2022-10-28T22:13:15.174Z,8.37
2022-10-28T22:18:20.214Z,9.07
2022-10-28T22:23:22.671Z,8.57
2022-10-28T22:28:24.969Z,7.57
2022-10-28T22:33:27.206Z,7.67
2022-10-28T22:38:29.774Z,9.00
2022-10-28T22:43:32.329Z,7.87
2022-10-28T22:48:34.630Z,7.63
2022-10-28T22:53:38.089Z,7.03
2022-10-28T22:58:41.233Z,5.97
2022-10-28T23:03:45.253Z,5.53
2022-10-28T23:08:47.789Z,5.73
2022-10-28T23:13:54.076Z,5.50
2022-10-28T23:18:56.400Z,5.30
2022-10-28T23:24:00.094Z,4.97
2022-10-28T23:29:02.288Z,5.23
2022-10-28T23:34:04.538Z,7.40
2022-10-28T23:39:06.670Z,5.70
2022-10-28T23:44:08.812Z,5.70
2022-10-28T23:49:11.005Z,5.63
2022-10-28T23:54:13.167Z,5.40
2022-10-28T23:59:15.662Z,5.40
